sensor_id;sensor_type;location;lat;lon;timestamp;pressure;altitude;pressure_sealevel;temperature;humidity
11053;BME280;55230;42.602;23.470;2023-10-13T00:00:21;94038.28;;;10.60;100.00
11053;BME280;55230;42.602;23.470;2023-10-13T00:02:55;94031.84;;;10.58;100.00
11053;BME280;55230;42.602;23.470;2023-10-13T00:05:25;94031.50;;;10.56;100.00
11053;BME280;55230;42.602;23.470;2023-10-13T00:07:53;94022.31;;;10.53;100.00
11053;BME280;55230;42.602;23.470;2023-10-13T00:10:20;94017.81;;;10.50;100.00
11053;BME280;55230;42.602;23.470;2023-10-13T00:12:46;94017.91;;;10.46;100.00
11053;BME280;55230;42.602;23.470;2023-10-13T00:15:15;94013.72;;;10.45;100.00
11053;BME280;55230;42.602;23.470;2023-10-13T00:17:44;94017.47;;;10.48;100.00
11053;BME280;55230;42.602;23.470;2023-10-13T00:20:11;94007.69;;;10.41;100.00
11053;BME280;55230;42.602;23.470;2023-10-13T00:23:00;94010.81;;;10.40;100.00
11053;BME280;55230;42.602;23.470;2023-10-13T00:25:28;94004.00;;;10.35;100.00
11053;BME280;55230;42.602;23.470;2023-10-13T00:28:04;94000.34;;;10.29;100.00
11053;BME280;55230;42.602;23.470;2023-10-13T00:30:33;94004.25;;;10.28;100.00
11053;BME280;55230;42.602;23.470;2023-10-13T00:33:00;94001.66;;;10.25;100.00
11053;BME280;55230;42.602;23.470;2023-10-13T00:35:27;94007.06;;;10.25;100.00
11053;BME280;55230;42.602;23.470;2023-10-13T00:37:54;94004.47;;;10.21;100.00
11053;BME280;55230;42.602;23.470;2023-10-13T00:40:23;94012.22;;;10.19;100.00
11053;BME280;55230;42.602;23.470;2023-10-13T00:43:09;94010.81;;;10.15;100.00
11053;BME280;55230;42.602;23.470;2023-10-13T00:45:54;94017.06;;;10.12;100.00
11053;BME280;55230;42.602;23.470;2023-10-13T00:48:22;94007.16;;;10.09;100.00
11053;BME280;55230;42.602;23.470;2023-10-13T00:50:50;94017.16;;;10.08;100.00
11053;BME280;55230;42.602;23.470;2023-10-13T00:53:16;94012.94;;;10.07;100.00
11053;BME280;55230;42.602;23.470;2023-10-13T00:55:44;94017.25;;;10.05;100.00
11053;BME280;55230;42.602;23.470;2023-10-13T00:58:10;94017.25;;;10.05;100.00
11053;BME280;55230;42.602;23.470;2023-10-13T01:00:37;94014.84;;;9.94;100.00
11053;BME280;55230;42.602;23.470;2023-10-13T01:03:12;94020.25;;;9.94;100.00
11053;BME280;55230;42.602;23.470;2023-10-13T01:05:38;94020.66;;;9.93;100.00
11053;BME280;55230;42.602;23.470;2023-10-13T01:08:05;94015.38;;;9.89;100.00
11053;BME280;55230;42.602;23.470;2023-10-13T01:10:36;94023.13;;;9.87;100.00
11053;BME280;55230;42.602;23.470;2023-10-13T01:13:08;94015.50;;;9.86;100.00
11053;BME280;55230;42.602;23.470;2023-10-13T01:15:33;94009.78;;;9.84;100.00
11053;BME280;55230;42.602;23.470;2023-10-13T01:18:06;94009.03;;;9.83;100.00
11053;BME280;55230;42.602;23.470;2023-10-13T01:20:36;94018.63;;;9.84;100.00
11053;BME280;55230;42.602;23.470;2023-10-13T01:23:10;94008.72;;;9.81;100.00
11053;BME280;55230;42.602;23.470;2023-10-13T01:25:43;94012.56;;;9.80;100.00
11053;BME280;55230;42.602;23.470;2023-10-13T01:28:10;94009.88;;;9.80;100.00
11053;BME280;55230;42.602;23.470;2023-10-13T01:30:36;94013.44;;;9.77;100.00
11053;BME280;55230;42.602;23.470;2023-10-13T01:33:04;94010.72;;;9.77;100.00
11053;BME280;55230;42.602;23.470;2023-10-13T01:35:29;94017.31;;;9.76;100.00
11053;BME280;55230;42.602;23.470;2023-10-13T01:38:01;94013.53;;;9.74;100.00
11053;BME280;55230;42.602;23.470;2023-10-13T01:40:28;94019.69;;;9.74;100.00
11053;BME280;55230;42.602;23.470;2023-10-13T01:42:58;94012.78;;;9.73;100.00
11053;BME280;55230;42.602;23.470;2023-10-13T01:45:24;94012.03;;;9.73;100.00
11053;BME280;55230;42.602;23.470;2023-10-13T01:47:54;94012.78;;;9.73;100.00
11053;BME280;55230;42.602;23.470;2023-10-13T01:50:19;94017.84;;;9.71;100.00
11053;BME280;55230;42.602;23.470;2023-10-13T01:52:53;94022.91;;;9.69;100.00
11053;BME280;55230;42.602;23.470;2023-10-13T01:55:25;94022.69;;;9.76;100.00
11053;BME280;55230;42.602;23.470;2023-10-13T01:57:54;94035.63;;;9.81;100.00
11053;BME280;55230;42.602;23.470;2023-10-13T02:00:20;94023.25;;;9.84;100.00
11053;BME280;55230;42.602;23.470;2023-10-13T02:02:51;94026.78;;;9.81;100.00
11053;BME280;55230;42.602;23.470;2023-10-13T02:05:17;94010.31;;;9.79;100.00
11053;BME280;55230;42.602;23.470;2023-10-13T02:07:44;94019.81;;;9.83;100.00
11053;BME280;55230;42.602;23.470;2023-10-13T02:10:10;94013.75;;;9.79;100.00
11053;BME280;55230;42.602;23.470;2023-10-13T02:12:37;94009.03;;;9.83;100.00
11053;BME280;55230;42.602;23.470;2023-10-13T02:15:09;94002.56;;;9.81;100.00
11053;BME280;55230;42.602;23.470;2023-10-13T02:17:38;93988.66;;;9.82;100.00
11053;BME280;55230;42.602;23.470;2023-10-13T02:20:07;93992.88;;;9.83;100.00
11053;BME280;55230;42.602;23.470;2023-10-13T02:22:39;93999.75;;;9.84;100.00
11053;BME280;55230;42.602;23.470;2023-10-13T02:25:14;93999.88;;;9.81;100.00
11053;BME280;55230;42.602;23.470;2023-10-13T02:27:42;93999.09;;;9.80;100.00
11053;BME280;55230;42.602;23.470;2023-10-13T02:30:10;94001.16;;;9.76;100.00
11053;BME280;55230;42.602;23.470;2023-10-13T02:32:39;94006.97;;;9.75;100.00
11053;BME280;55230;42.602;23.470;2023-10-13T02:35:08;94008.13;;;9.74;100.00
11053;BME280;55230;42.602;23.470;2023-10-13T02:37:40;94002.84;;;9.70;100.00
11053;BME280;55230;42.602;23.470;2023-10-13T02:40:09;94002.53;;;9.68;100.00
11053;BME280;55230;42.602;23.470;2023-10-13T02:42:35;94012.13;;;9.69;100.00
11053;BME280;55230;42.602;23.470;2023-10-13T02:45:01;94012.13;;;9.69;100.00
11053;BME280;55230;42.602;23.470;2023-10-13T02:47:30;94000.16;;;9.70;100.00
11053;BME280;55230;42.602;23.470;2023-10-13T02:49:57;94001.34;;;9.69;100.00
11053;BME280;55230;42.602;23.470;2023-10-13T02:52:26;94000.25;;;9.67;100.00
11053;BME280;55230;42.602;23.470;2023-10-13T02:54:51;94001.47;;;9.66;100.00
11053;BME280;55230;42.602;23.470;2023-10-13T02:57:18;94003.81;;;9.64;100.00
11053;BME280;55230;42.602;23.470;2023-10-13T02:59:44;94006.94;;;9.62;100.00
11053;BME280;55230;42.602;23.470;2023-10-13T03:02:12;94004.47;;;9.68;100.00
11053;BME280;55230;42.602;23.470;2023-10-13T03:04:50;94016.31;;;9.70;100.00
11053;BME280;55230;42.602;23.470;2023-10-13T03:07:17;94020.75;;;9.64;100.00
11053;BME280;55230;42.602;23.470;2023-10-13T03:09:48;94028.72;;;9.68;100.00
11053;BME280;55230;42.602;23.470;2023-10-13T03:12:17;94035.69;;;9.65;100.00
11053;BME280;55230;42.602;23.470;2023-10-13T03:14:42;94037.63;;;9.65;100.00
11053;BME280;55230;42.602;23.470;2023-10-13T03:17:13;94023.97;;;9.59;100.00
11053;BME280;55230;42.602;23.470;2023-10-13T03:19:42;94024.78;;;9.56;100.00
11053;BME280;55230;42.602;23.470;2023-10-13T03:22:12;94028.78;;;9.52;100.00
11053;BME280;55230;42.602;23.470;2023-10-13T03:24:41;94027.56;;;9.40;100.00
11053;BME280;55230;42.602;23.470;2023-10-13T03:27:11;94033.03;;;9.37;100.00
11053;BME280;55230;42.602;23.470;2023-10-13T03:29:41;94026.22;;;9.32;100.00
11053;BME280;55230;42.602;23.470;2023-10-13T03:32:08;94025.66;;;9.24;100.00
11053;BME280;55230;42.602;23.470;2023-10-13T03:34:37;94032.31;;;9.20;100.00
11053;BME280;55230;42.602;23.470;2023-10-13T03:37:15;94024.41;;;9.13;100.00
11053;BME280;55230;42.602;23.470;2023-10-13T03:39:44;94025.28;;;9.10;100.00
11053;BME280;55230;42.602;23.470;2023-10-13T03:42:11;94020.75;;;9.07;100.00
11053;BME280;55230;42.602;23.470;2023-10-13T03:44:43;94015.03;;;9.05;100.00
11053;BME280;55230;42.602;23.470;2023-10-13T03:47:11;94022.84;;;8.99;100.00
11053;BME280;55230;42.602;23.470;2023-10-13T03:49:51;94013.38;;;8.95;100.00
11053;BME280;55230;42.602;23.470;2023-10-13T03:52:21;94012.94;;;8.96;100.00
11053;BME280;55230;42.602;23.470;2023-10-13T03:54:50;94005.47;;;8.88;100.00
11053;BME280;55230;42.602;23.470;2023-10-13T03:57:17;93998.19;;;8.88;100.00
11053;BME280;55230;42.602;23.470;2023-10-13T03:59:43;93991.94;;;8.91;100.00
11053;BME280;55230;42.602;23.470;2023-10-13T04:02:13;93982.47;;;8.87;100.00
11053;BME280;55230;42.602;23.470;2023-10-13T04:04:43;93988.16;;;8.89;100.00
11053;BME280;55230;42.602;23.470;2023-10-13T04:07:14;93981.97;;;8.92;100.00
11053;BME280;55230;42.602;23.470;2023-10-13T04:10:02;93975.72;;;8.95;100.00
11053;BME280;55230;42.602;23.470;2023-10-13T04:12:54;93972.50;;;9.00;100.00
11053;BME280;55230;42.602;23.470;2023-10-13T04:15:46;93979.22;;;9.08;100.00
11053;BME280;55230;42.602;23.470;2023-10-13T04:18:40;93972.47;;;9.16;100.00
11053;BME280;55230;42.602;23.470;2023-10-13T04:21:29;93974.13;;;9.26;100.00
11053;BME280;55230;42.602;23.470;2023-10-13T04:24:05;93983.50;;;9.34;100.00
11053;BME280;55230;42.602;23.470;2023-10-13T04:26:44;93979.00;;;9.44;100.00
11053;BME280;55230;42.602;23.470;2023-10-13T04:29:30;93989.69;;;9.47;100.00
11053;BME280;55230;42.602;23.470;2023-10-13T04:32:11;93997.31;;;9.49;100.00
11053;BME280;55230;42.602;23.470;2023-10-13T04:34:41;93997.53;;;9.42;100.00
11053;BME280;55230;42.602;23.470;2023-10-13T04:37:10;94004.50;;;9.39;100.00
11053;BME280;55230;42.602;23.470;2023-10-13T04:39:53;94014.34;;;9.46;100.00
11053;BME280;55230;42.602;23.470;2023-10-13T04:42:24;94019.81;;;9.42;100.00
11053;BME280;55230;42.602;23.470;2023-10-13T04:45:05;94013.56;;;9.45;100.00
11053;BME280;55230;42.602;23.470;2023-10-13T04:47:41;94008.19;;;9.45;100.00
11053;BME280;55230;42.602;23.470;2023-10-13T04:50:23;94013.78;;;9.38;100.00
11053;BME280;55230;42.602;23.470;2023-10-13T04:53:00;94017.22;;;9.39;100.00
11053;BME280;55230;42.602;23.470;2023-10-13T04:55:38;94020.66;;;9.39;100.00
11053;BME280;55230;42.602;23.470;2023-10-13T04:58:13;94019.81;;;9.42;100.00
11053;BME280;55230;42.602;23.470;2023-10-13T05:01:02;94024.91;;;9.24;100.00
11053;BME280;55230;42.602;23.470;2023-10-13T05:03:48;94032.28;;;9.36;100.00
11053;BME280;55230;42.602;23.470;2023-10-13T05:06:35;94039.41;;;9.43;100.00
11053;BME280;55230;42.602;23.470;2023-10-13T05:09:19;94042.66;;;9.50;100.00
11053;BME280;55230;42.602;23.470;2023-10-13T05:12:05;94040.41;;;9.49;100.00
11053;BME280;55230;42.602;23.470;2023-10-13T05:14:49;94060.31;;;9.51;100.00
11053;BME280;55230;42.602;23.470;2023-10-13T05:17:33;94055.88;;;9.73;100.00
11053;BME280;55230;42.602;23.470;2023-10-13T05:20:17;94055.78;;;9.89;100.00
11053;BME280;55230;42.602;23.470;2023-10-13T05:23:02;94050.34;;;10.05;100.00
11053;BME280;55230;42.602;23.470;2023-10-13T05:25:46;94060.72;;;10.19;100.00
11053;BME280;55230;42.602;23.470;2023-10-13T05:28:30;94069.56;;;10.32;100.00
11053;BME280;55230;42.602;23.470;2023-10-13T05:31:14;94057.94;;;10.23;100.00
11053;BME280;55230;42.602;23.470;2023-10-13T05:33:57;94071.72;;;10.37;100.00
11053;BME280;55230;42.602;23.470;2023-10-13T05:36:41;94072.59;;;10.60;100.00
11053;BME280;55230;42.602;23.470;2023-10-13T05:39:26;94073.25;;;10.38;100.00
11053;BME280;55230;42.602;23.470;2023-10-13T05:42:10;94085.75;;;10.32;100.00
11053;BME280;55230;42.602;23.470;2023-10-13T05:44:51;94094.25;;;10.31;100.00
11053;BME280;55230;42.602;23.470;2023-10-13T05:47:42;94102.56;;;10.36;100.00
11053;BME280;55230;42.602;23.470;2023-10-13T05:50:19;94099.88;;;10.62;100.00
11053;BME280;55230;42.602;23.470;2023-10-13T05:53:03;94101.06;;;10.86;100.00
11053;BME280;55230;42.602;23.470;2023-10-13T05:55:48;94093.38;;;11.09;100.00
11053;BME280;55230;42.602;23.470;2023-10-13T05:58:32;94096.09;;;10.97;100.00
11053;BME280;55230;42.602;23.470;2023-10-13T06:01:15;94097.41;;;10.92;100.00
11053;BME280;55230;42.602;23.470;2023-10-13T06:03:59;94093.94;;;11.04;100.00
11053;BME280;55230;42.602;23.470;2023-10-13T06:06:43;94093.16;;;11.16;100.00
11053;BME280;55230;42.602;23.470;2023-10-13T06:09:27;94102.50;;;11.37;100.00
11053;BME280;55230;42.602;23.470;2023-10-13T06:12:12;94102.19;;;11.69;100.00
11053;BME280;55230;42.602;23.470;2023-10-13T06:14:56;94106.84;;;11.90;100.00
11053;BME280;55230;42.602;23.470;2023-10-13T06:17:40;94119.91;;;11.92;100.00
11053;BME280;55230;42.602;23.470;2023-10-13T06:20:24;94128.22;;;11.97;100.00
11053;BME280;55230;42.602;23.470;2023-10-13T06:23:08;94130.38;;;12.02;100.00
11053;BME280;55230;42.602;23.470;2023-10-13T06:25:52;94139.28;;;12.12;100.00
11053;BME280;55230;42.602;23.470;2023-10-13T06:28:37;94133.13;;;12.11;100.00
11053;BME280;55230;42.602;23.470;2023-10-13T06:31:11;94137.66;;;12.14;100.00
11053;BME280;55230;42.602;23.470;2023-10-13T06:33:40;94130.47;;;12.20;100.00
11053;BME280;55230;42.602;23.470;2023-10-13T06:36:10;94138.00;;;12.25;100.00
11053;BME280;55230;42.602;23.470;2023-10-13T06:38:37;94136.38;;;12.28;100.00
11053;BME280;55230;42.602;23.470;2023-10-13T06:41:03;94141.28;;;12.20;100.00
11053;BME280;55230;42.602;23.470;2023-10-13T06:43:31;94132.44;;;12.20;100.00
11053;BME280;55230;42.602;23.470;2023-10-13T06:46:06;94157.69;;;12.26;100.00
11053;BME280;55230;42.602;23.470;2023-10-13T06:48:37;94144.06;;;12.29;100.00
11053;BME280;55230;42.602;23.470;2023-10-13T06:51:05;94141.72;;;12.40;100.00
11053;BME280;55230;42.602;23.470;2023-10-13T06:53:42;94136.19;;;12.74;100.00
11053;BME280;55230;42.602;23.470;2023-10-13T06:56:12;94131.41;;;13.18;100.00
11053;BME280;55230;42.602;23.470;2023-10-13T06:58:43;94137.28;;;13.26;99.11
11053;BME280;55230;42.602;23.470;2023-10-13T07:01:11;94130.41;;;13.43;97.99
11053;BME280;55230;42.602;23.470;2023-10-13T07:03:40;94132.38;;;13.60;97.24
11053;BME280;55230;42.602;23.470;2023-10-13T07:06:06;94138.28;;;13.68;96.50
11053;BME280;55230;42.602;23.470;2023-10-13T07:08:36;94129.84;;;13.75;96.30
11053;BME280;55230;42.602;23.470;2023-10-13T07:11:03;94123.38;;;13.81;95.92
11053;BME280;55230;42.602;23.470;2023-10-13T07:13:30;94121.09;;;13.98;95.79
11053;BME280;55230;42.602;23.470;2023-10-13T07:15:57;94114.31;;;14.12;94.95
11053;BME280;55230;42.602;23.470;2023-10-13T07:18:32;94115.97;;;14.18;93.91
11053;BME280;55230;42.602;23.470;2023-10-13T07:21:02;94120.50;;;14.30;93.49
11053;BME280;55230;42.602;23.470;2023-10-13T07:23:35;94116.88;;;14.33;93.11
11053;BME280;55230;42.602;23.470;2023-10-13T07:26:01;94123.94;;;14.40;92.54
11053;BME280;55230;42.602;23.470;2023-10-13T07:28:28;94128.44;;;14.61;91.03
11053;BME280;55230;42.602;23.470;2023-10-13T07:30:56;94133.38;;;14.71;90.93
11053;BME280;55230;42.602;23.470;2023-10-13T07:33:38;94148.44;;;14.81;90.72
11053;BME280;55230;42.602;23.470;2023-10-13T07:36:07;94150.25;;;14.75;89.32
11053;BME280;55230;42.602;23.470;2023-10-13T07:38:41;94140.91;;;14.76;88.37
11053;BME280;55230;42.602;23.470;2023-10-13T07:41:08;94140.97;;;15.00;87.32
11053;BME280;55230;42.602;23.470;2023-10-13T07:43:40;94145.84;;;15.29;86.40
11053;BME280;55230;42.602;23.470;2023-10-13T07:46:07;94145.69;;;15.56;84.93
11053;BME280;55230;42.602;23.470;2023-10-13T07:48:35;94140.44;;;15.52;82.62
11053;BME280;55230;42.602;23.470;2023-10-13T07:51:04;94135.06;;;15.67;82.39
11053;BME280;55230;42.602;23.470;2023-10-13T07:53:34;94136.59;;;16.06;80.70
11053;BME280;55230;42.602;23.470;2023-10-13T07:56:04;94125.53;;;16.24;78.20
11053;BME280;55230;42.602;23.470;2023-10-13T07:58:32;94122.38;;;16.40;76.62
11053;BME280;55230;42.602;23.470;2023-10-13T08:00:59;94120.00;;;16.33;77.70
11053;BME280;55230;42.602;23.470;2023-10-13T08:03:33;94129.59;;;16.43;76.94
11053;BME280;55230;42.602;23.470;2023-10-13T08:06:09;94122.97;;;16.59;75.84
11053;BME280;55230;42.602;23.470;2023-10-13T08:08:47;94121.88;;;16.42;74.68
11053;BME280;55230;42.602;23.470;2023-10-13T08:11:18;94126.56;;;16.41;74.43
11053;BME280;55230;42.602;23.470;2023-10-13T08:13:56;94127.84;;;16.55;73.94
11053;BME280;55230;42.602;23.470;2023-10-13T08:16:24;94130.56;;;16.69;72.68
11053;BME280;55230;42.602;23.470;2023-10-13T08:18:55;94124.47;;;16.60;73.26
11053;BME280;55230;42.602;23.470;2023-10-13T08:21:23;94127.25;;;17.09;71.86
11053;BME280;55230;42.602;23.470;2023-10-13T08:23:50;94113.94;;;17.31;70.18
11053;BME280;55230;42.602;23.470;2023-10-13T08:26:31;94108.91;;;17.79;67.03
11053;BME280;55230;42.602;23.470;2023-10-13T08:29:12;94113.25;;;17.91;67.37
11053;BME280;55230;42.602;23.470;2023-10-13T08:32:01;94122.53;;;17.99;65.76
11053;BME280;55230;42.602;23.470;2023-10-13T08:34:40;94125.66;;;18.12;65.82
11053;BME280;55230;42.602;23.470;2023-10-13T08:37:26;94125.66;;;18.12;63.87
11053;BME280;55230;42.602;23.470;2023-10-13T08:39:55;94131.69;;;17.96;63.90
11053;BME280;55230;42.602;23.470;2023-10-13T08:42:44;94153.47;;;17.76;64.01
11053;BME280;55230;42.602;23.470;2023-10-13T08:45:18;94151.72;;;17.73;65.54
11053;BME280;55230;42.602;23.470;2023-10-13T08:48:07;94142.88;;;17.98;62.79
11053;BME280;55230;42.602;23.470;2023-10-13T08:50:38;94134.88;;;17.94;61.50
11053;BME280;55230;42.602;23.470;2023-10-13T08:53:15;94126.56;;;18.49;59.37
11053;BME280;55230;42.602;23.470;2023-10-13T08:55:52;94135.84;;;18.37;59.62
11053;BME280;55230;42.602;23.470;2023-10-13T08:58:30;94121.53;;;18.42;59.96
11053;BME280;55230;42.602;23.470;2023-10-13T09:01:10;94122.59;;;18.50;59.87
11053;BME280;55230;42.602;23.470;2023-10-13T09:03:38;94120.75;;;18.62;59.28
11053;BME280;55230;42.602;23.470;2023-10-13T09:06:05;94122.72;;;18.61;59.04
11053;BME280;55230;42.602;23.470;2023-10-13T09:08:33;94124.00;;;18.66;58.06
11053;BME280;55230;42.602;23.470;2023-10-13T09:11:09;94115.34;;;18.67;57.29
11053;BME280;55230;42.602;23.470;2023-10-13T09:13:37;94116.66;;;18.77;56.92
11053;BME280;55230;42.602;23.470;2023-10-13T09:16:10;94119.84;;;19.32;55.85
11053;BME280;55230;42.602;23.470;2023-10-13T09:18:41;94117.09;;;19.32;53.84
11053;BME280;55230;42.602;23.470;2023-10-13T09:21:12;94118.06;;;19.72;53.20
11053;BME280;55230;42.602;23.470;2023-10-13T09:23:54;94114.31;;;20.28;51.16
11053;BME280;55230;42.602;23.470;2023-10-13T09:26:41;94118.88;;;20.47;49.86
11053;BME280;55230;42.602;23.470;2023-10-13T09:29:14;94115.44;;;20.69;49.48
11053;BME280;55230;42.602;23.470;2023-10-13T09:31:43;94115.91;;;20.95;49.13
11053;BME280;55230;42.602;23.470;2023-10-13T09:34:10;94109.47;;;21.20;47.99
11053;BME280;55230;42.602;23.470;2023-10-13T09:36:36;94104.75;;;21.21;47.34
11053;BME280;55230;42.602;23.470;2023-10-13T09:39:03;94099.25;;;21.21;46.98
11053;BME280;55230;42.602;23.470;2023-10-13T09:41:38;94084.94;;;21.55;46.55
11053;BME280;55230;42.602;23.470;2023-10-13T09:44:05;94079.44;;;21.77;45.67
11053;BME280;55230;42.602;23.470;2023-10-13T09:46:34;94082.81;;;22.06;45.25
11053;BME280;55230;42.602;23.470;2023-10-13T09:49:09;94071.56;;;22.09;44.21
11053;BME280;55230;42.602;23.470;2023-10-13T09:51:39;94074.81;;;22.08;43.38
11053;BME280;55230;42.602;23.470;2023-10-13T09:54:17;93873.69;;;20.76;42.58
11053;BME280;55230;42.602;23.470;2023-10-13T09:56:50;94063.38;;;22.04;43.67
11053;BME280;55230;42.602;23.470;2023-10-13T09:59:17;94073.34;;;22.07;43.26
11053;BME280;55230;42.602;23.470;2023-10-13T10:01:45;94070.34;;;22.05;43.86
11053;BME280;55230;42.602;23.470;2023-10-13T10:04:16;94073.16;;;21.88;43.91
11053;BME280;55230;42.602;23.470;2023-10-13T10:06:51;94073.47;;;21.62;43.57
11053;BME280;55230;42.602;23.470;2023-10-13T10:09:19;94069.47;;;21.63;43.72
11053;BME280;55230;42.602;23.470;2023-10-13T10:17:39;94055.94;;;21.88;42.22
11053;BME280;55230;42.602;23.470;2023-10-13T10:20:06;94057.38;;;22.00;40.92
11053;BME280;55230;42.602;23.470;2023-10-13T10:22:55;94061.84;;;22.03;40.84
11053;BME280;55230;42.602;23.470;2023-10-13T10:25:29;94052.31;;;22.09;40.34
11053;BME280;55230;42.602;23.470;2023-10-13T10:28:00;94052.53;;;22.22;40.80
11053;BME280;55230;42.602;23.470;2023-10-13T10:30:31;94048.72;;;22.31;41.34
11053;BME280;55230;42.602;23.470;2023-10-13T10:32:58;94047.16;;;22.41;41.26
11053;BME280;55230;42.602;23.470;2023-10-13T10:35:26;94052.34;;;22.55;40.85
11053;BME280;55230;42.602;23.470;2023-10-13T10:37:55;94037.13;;;22.84;39.41
11053;BME280;55230;42.602;23.470;2023-10-13T10:40:47;94039.63;;;23.12;39.30
11053;BME280;55230;42.602;23.470;2023-10-13T10:43:16;94043.75;;;23.24;38.28
11053;BME280;55230;42.602;23.470;2023-10-13T10:45:45;94044.53;;;23.24;38.79
11053;BME280;55230;42.602;23.470;2023-10-13T10:48:13;94038.09;;;23.40;37.76
11053;BME280;55230;42.602;23.470;2023-10-13T10:50:43;94045.66;;;23.40;37.83
11053;BME280;55230;42.602;23.470;2023-10-13T10:53:10;94045.66;;;23.40;38.01
11053;BME280;55230;42.602;23.470;2023-10-13T10:55:38;94046.50;;;23.53;37.88
11053;BME280;55230;42.602;23.470;2023-10-13T10:58:04;94044.94;;;23.04;38.60
11053;BME280;55230;42.602;23.470;2023-10-13T11:00:31;94041.25;;;22.96;38.69
11053;BME280;55230;42.602;23.470;2023-10-13T11:03:10;94034.16;;;23.06;38.73
11053;BME280;55230;42.602;23.470;2023-10-13T11:05:44;94033.53;;;23.48;39.47
11053;BME280;55230;42.602;23.470;2023-10-13T11:08:20;94035.47;;;23.96;37.92
11053;BME280;55230;42.602;23.470;2023-10-13T11:10:51;94035.97;;;24.19;37.24
11053;BME280;55230;42.602;23.470;2023-10-13T11:13:18;94035.38;;;24.07;36.53
11053;BME280;55230;42.602;23.470;2023-10-13T11:15:47;94023.09;;;23.84;36.01
11053;BME280;55230;42.602;23.470;2023-10-13T11:18:16;94023.03;;;23.71;36.46
11053;BME280;55230;42.602;23.470;2023-10-13T11:20:46;94016.22;;;23.53;36.90
11053;BME280;55230;42.602;23.470;2023-10-13T11:23:15;94020.28;;;23.47;37.09
11053;BME280;55230;42.602;23.470;2023-10-13T11:25:41;94012.47;;;23.51;37.04
11053;BME280;55230;42.602;23.470;2023-10-13T11:28:11;94010.81;;;23.42;37.09
11053;BME280;55230;42.602;23.470;2023-10-13T11:30:44;94011.94;;;23.52;36.99
11053;BME280;55230;42.602;23.470;2023-10-13T11:33:14;94004.31;;;23.64;37.07
11053;BME280;55230;42.602;23.470;2023-10-13T11:35:44;94010.50;;;23.70;37.02
11053;BME280;55230;42.602;23.470;2023-10-13T11:38:23;94007.16;;;23.95;36.59
11053;BME280;55230;42.602;23.470;2023-10-13T11:40:54;94008.28;;;23.87;36.29
11053;BME280;55230;42.602;23.470;2023-10-13T11:43:41;94002.09;;;24.37;36.36
11053;BME280;55230;42.602;23.470;2023-10-13T11:46:37;94001.47;;;24.81;35.35
11053;BME280;55230;42.602;23.470;2023-10-13T11:49:22;93994.13;;;24.83;34.58
11053;BME280;55230;42.602;23.470;2023-10-13T11:51:59;93991.22;;;24.44;34.47
11053;BME280;55230;42.602;23.470;2023-10-13T11:54:41;93992.72;;;24.45;35.02
11053;BME280;55230;42.602;23.470;2023-10-13T11:57:08;93993.94;;;24.31;35.57
11053;BME280;55230;42.602;23.470;2023-10-13T11:59:36;93989.47;;;24.28;35.49
11053;BME280;55230;42.602;23.470;2023-10-13T12:02:10;93988.88;;;24.67;35.95
11053;BME280;55230;42.602;23.470;2023-10-13T12:04:54;93980.59;;;24.17;35.20
11053;BME280;55230;42.602;23.470;2023-10-13T12:07:22;93979.06;;;24.21;35.72
11053;BME280;55230;42.602;23.470;2023-10-13T12:09:52;93979.63;;;23.95;35.94
11053;BME280;55230;42.602;23.470;2023-10-13T12:12:28;93976.66;;;23.93;35.22
11053;BME280;55230;42.602;23.470;2023-10-13T12:14:57;93980.16;;;24.13;36.14
11053;BME280;55230;42.602;23.470;2023-10-13T12:17:34;93966.19;;;24.42;35.57
11053;BME280;55230;42.602;23.470;2023-10-13T12:20:00;93969.72;;;24.56;34.93
11053;BME280;55230;42.602;23.470;2023-10-13T12:22:29;93969.00;;;24.87;35.09
11053;BME280;55230;42.602;23.470;2023-10-13T12:25:00;93968.03;;;24.84;34.25
11053;BME280;55230;42.602;23.470;2023-10-13T12:27:30;93969.13;;;24.81;34.99
11053;BME280;55230;42.602;23.470;2023-10-13T12:30:12;93970.41;;;24.62;34.61
11053;BME280;55230;42.602;23.470;2023-10-13T12:32:39;93974.88;;;24.33;34.97
11053;BME280;55230;42.602;23.470;2023-10-13T12:35:10;93974.59;;;23.99;35.56
11053;BME280;55230;42.602;23.470;2023-10-13T12:37:55;93967.00;;;24.06;35.42
11053;BME280;55230;42.602;23.470;2023-10-13T12:40:30;93960.94;;;24.26;35.32
11053;BME280;55230;42.602;23.470;2023-10-13T12:43:14;93958.97;;;24.39;35.12
11053;BME280;55230;42.602;23.470;2023-10-13T12:45:59;93954.75;;;24.38;35.31
11053;BME280;55230;42.602;23.470;2023-10-13T12:48:42;93961.13;;;24.46;35.03
11053;BME280;55230;42.602;23.470;2023-10-13T12:51:41;93951.69;;;24.73;35.73
11053;BME280;55230;42.602;23.470;2023-10-13T12:54:15;93950.66;;;24.89;35.65
11053;BME280;55230;42.602;23.470;2023-10-13T12:56:45;93958.72;;;24.87;34.34
11053;BME280;55230;42.602;23.470;2023-10-13T12:59:12;93952.78;;;25.09;34.81
11053;BME280;55230;42.602;23.470;2023-10-13T13:01:41;93960.72;;;24.87;33.63
11053;BME280;55230;42.602;23.470;2023-10-13T13:04:08;93945.88;;;24.58;34.24
11053;BME280;55230;42.602;23.470;2023-10-13T13:06:38;93952.25;;;24.85;34.14
11053;BME280;55230;42.602;23.470;2023-10-13T13:09:05;93944.88;;;24.43;34.09
11053;BME280;55230;42.602;23.470;2023-10-13T13:11:34;93955.84;;;24.48;34.38
11053;BME280;55230;42.602;23.470;2023-10-13T13:14:04;93949.31;;;24.33;34.06
11053;BME280;55230;42.602;23.470;2023-10-13T13:16:33;93951.16;;;24.25;34.17
11053;BME280;55230;42.602;23.470;2023-10-13T13:19:01;93951.63;;;24.29;34.45
11053;BME280;55230;42.602;23.470;2023-10-13T13:21:35;93950.56;;;24.32;34.54
11053;BME280;55230;42.602;23.470;2023-10-13T13:24:01;93950.38;;;24.30;35.01